UAL643 KSFO-KSNA
Flight info
| Callsign | UAL643 |
|---|---|
| Flight time | 1h 4m |
| Altitude | 39000 |
| Route | WESLA5 YYUNG TILLT RUKKI1 |
| Aircraft | B38M/M-SDE1FGHILORVWXY/HB1 |
Departure
| Time | 2026-05-06 19:04 |
|---|---|
| Airport | San Francisco International Airport (KSFO) |
Arrival
| Time | 2026-05-06 20:08 |
|---|---|
| Airport | John Wayne Orange County International Airport (KSNA) |
| Time | Latitude | Longitude | Altitude | Speed | Heading |
|---|---|---|---|---|---|
| 2026-05-06 18:29 | 37.61884 | -122.38381 | 25 ft | 0 kts | 298° |
| 2026-05-06 18:53 | 37.61874 | -122.38356 | 27 ft | 4 kts | 296° |
| 2026-05-06 18:54 | 37.61863 | -122.38325 | 28 ft | 4 kts | 293° |
| 2026-05-06 18:54 | 37.61855 | -122.38301 | 26 ft | 1 kts | 291° |
| 2026-05-06 18:54 | 37.61854 | -122.38296 | 26 ft | 0 kts | 291° |
| 2026-05-06 18:57 | 37.61857 | -122.38302 | 26 ft | 2 kts | 308° |
| 2026-05-06 18:57 | 37.61869 | -122.38305 | 25 ft | 3 kts | 359° |
| 2026-05-06 18:57 | 37.61897 | -122.38296 | 23 ft | 6 kts | 27° |
| 2026-05-06 18:58 | 37.61938 | -122.38266 | 24 ft | 8 kts | 31° |
| 2026-05-06 18:58 | 37.61962 | -122.38202 | 23 ft | 10 kts | 96° |
| 2026-05-06 18:58 | 37.61929 | -122.38113 | 23 ft | 13 kts | 119° |
| 2026-05-06 18:58 | 37.61884 | -122.38006 | 23 ft | 15 kts | 118° |
| 2026-05-06 18:59 | 37.61832 | -122.37878 | 24 ft | 18 kts | 111° |
| 2026-05-06 18:59 | 37.61785 | -122.37724 | 24 ft | 20 kts | 112° |
| 2026-05-06 18:59 | 37.61734 | -122.37559 | 25 ft | 22 kts | 110° |
| 2026-05-06 18:59 | 37.61669 | -122.37392 | 25 ft | 22 kts | 118° |
| 2026-05-06 19:00 | 37.61593 | -122.37209 | 26 ft | 25 kts | 118° |
| 2026-05-06 19:00 | 37.61510 | -122.37012 | 26 ft | 24 kts | 118° |
| 2026-05-06 19:00 | 37.61445 | -122.36891 | 28 ft | 17 kts | 134° |
| 2026-05-06 19:00 | 37.61387 | -122.36817 | 26 ft | 19 kts | 133° |
| 2026-05-06 19:01 | 37.61294 | -122.36609 | 23 ft | 22 kts | 118° |
| 2026-05-06 19:01 | 37.61218 | -122.36430 | 23 ft | 24 kts | 118° |
| 2026-05-06 19:01 | 37.61141 | -122.36246 | 23 ft | 23 kts | 118° |
| 2026-05-06 19:01 | 37.61073 | -122.36083 | 24 ft | 18 kts | 118° |
| 2026-05-06 19:02 | 37.61059 | -122.35949 | 23 ft | 15 kts | 60° |
| 2026-05-06 19:02 | 37.61143 | -122.35874 | 25 ft | 16 kts | 27° |
| 2026-05-06 19:02 | 37.61250 | -122.35803 | 23 ft | 17 kts | 27° |
| 2026-05-06 19:02 | 37.61336 | -122.35746 | 23 ft | 10 kts | 26° |
| 2026-05-06 19:03 | 37.61370 | -122.35750 | 23 ft | 3 kts | 299° |
| 2026-05-06 19:03 | 37.61426 | -122.35888 | 26 ft | 45 kts | 298° |
| 2026-05-06 19:03 | 37.61668 | -122.36467 | 26 ft | 102 kts | 298° |
| 2026-05-06 19:03 | 37.62070 | -122.37425 | 25 ft | 146 kts | 298° |
| 2026-05-06 19:04 | 37.62596 | -122.38683 | 159 ft | 170 kts | 297° |
| 2026-05-06 19:04 | 37.62963 | -122.39580 | 519 ft | 172 kts | 296° |
| 2026-05-06 19:04 | 37.63708 | -122.41434 | 1264 ft | 179 kts | 297° |
| 2026-05-06 19:04 | 37.64272 | -122.42806 | 2101 ft | 177 kts | 297° |
| 2026-05-06 19:05 | 37.64851 | -122.44203 | 2874 ft | 183 kts | 299° |
| 2026-05-06 19:05 | 37.65246 | -122.45157 | 3363 ft | 186 kts | 299° |
| 2026-05-06 19:05 | 37.65871 | -122.46660 | 3992 ft | 203 kts | 300° |
| 2026-05-06 19:05 | 37.66544 | -122.48343 | 4502 ft | 227 kts | 294° |
| 2026-05-06 19:06 | 37.66785 | -122.50402 | 5056 ft | 252 kts | 262° |
| 2026-05-06 19:06 | 37.65974 | -122.52439 | 5617 ft | 274 kts | 226° |
| 2026-05-06 19:06 | 37.64293 | -122.53637 | 6302 ft | 284 kts | 190° |
| 2026-05-06 19:06 | 37.62348 | -122.53476 | 7198 ft | 285 kts | 159° |
| 2026-05-06 19:07 | 37.60513 | -122.52449 | 7978 ft | 290 kts | 157° |
| 2026-05-06 19:07 | 37.58614 | -122.51536 | 8859 ft | 294 kts | 159° |
| 2026-05-06 19:07 | 37.56669 | -122.50668 | 9740 ft | 298 kts | 160° |
| 2026-05-06 19:07 | 37.54709 | -122.49830 | 10476 ft | 307 kts | 160° |
| 2026-05-06 19:08 | 37.52617 | -122.48956 | 10879 ft | 327 kts | 160° |
| 2026-05-06 19:08 | 37.50408 | -122.48052 | 11440 ft | 339 kts | 162° |
| 2026-05-06 19:08 | 37.48064 | -122.47740 | 12294 ft | 342 kts | 184° |
| 2026-05-06 19:08 | 37.45686 | -122.48131 | 13112 ft | 348 kts | 186° |
| 2026-05-06 19:09 | 37.43265 | -122.48550 | 13952 ft | 352 kts | 186° |
| 2026-05-06 19:09 | 37.40830 | -122.48987 | 14730 ft | 356 kts | 186° |
| 2026-05-06 19:09 | 37.38363 | -122.49439 | 15490 ft | 362 kts | 186° |
| 2026-05-06 19:09 | 37.35850 | -122.49904 | 16234 ft | 367 kts | 187° |
| 2026-05-06 19:10 | 37.33305 | -122.50376 | 16964 ft | 373 kts | 187° |
| 2026-05-06 19:10 | 37.30753 | -122.50849 | 17679 ft | 378 kts | 187° |
| 2026-05-06 19:10 | 37.28140 | -122.51334 | 18401 ft | 382 kts | 187° |
| 2026-05-06 19:10 | 37.25486 | -122.51826 | 19039 ft | 387 kts | 187° |
| 2026-05-06 19:11 | 37.22812 | -122.52322 | 19670 ft | 391 kts | 187° |
| 2026-05-06 19:11 | 37.20111 | -122.52822 | 20300 ft | 394 kts | 187° |
| 2026-05-06 19:11 | 37.17377 | -122.53327 | 20923 ft | 398 kts | 187° |
| 2026-05-06 19:11 | 37.14623 | -122.53836 | 21533 ft | 402 kts | 187° |
| 2026-05-06 19:12 | 37.11858 | -122.54347 | 22141 ft | 405 kts | 187° |
| 2026-05-06 19:12 | 37.09052 | -122.54865 | 22745 ft | 409 kts | 188° |
| 2026-05-06 19:12 | 37.06228 | -122.55386 | 23339 ft | 412 kts | 188° |
| 2026-05-06 19:12 | 37.03372 | -122.55852 | 23885 ft | 416 kts | 181° |
| 2026-05-06 19:13 | 37.00501 | -122.55498 | 24375 ft | 416 kts | 163° |
| 2026-05-06 19:13 | 36.97829 | -122.54131 | 24847 ft | 416 kts | 149° |
| 2026-05-06 19:13 | 36.95288 | -122.52366 | 25286 ft | 420 kts | 149° |
| 2026-05-06 19:13 | 36.92737 | -122.50554 | 25769 ft | 423 kts | 148° |
| 2026-05-06 19:14 | 36.90179 | -122.48708 | 26228 ft | 426 kts | 148° |
| 2026-05-06 19:14 | 36.87623 | -122.46844 | 26683 ft | 429 kts | 148° |
| 2026-05-06 19:14 | 36.85041 | -122.44954 | 27137 ft | 431 kts | 148° |
| 2026-05-06 19:14 | 36.82479 | -122.43075 | 27589 ft | 434 kts | 148° |
| 2026-05-06 19:15 | 36.79831 | -122.41134 | 28031 ft | 437 kts | 148° |
| 2026-05-06 19:15 | 36.77236 | -122.39233 | 28464 ft | 440 kts | 148° |
| 2026-05-06 19:15 | 36.74586 | -122.37294 | 28892 ft | 443 kts | 148° |
| 2026-05-06 19:15 | 36.71923 | -122.35347 | 29310 ft | 445 kts | 148° |
| 2026-05-06 19:16 | 36.69242 | -122.33387 | 29730 ft | 449 kts | 148° |
| 2026-05-06 19:16 | 36.66546 | -122.31418 | 30097 ft | 452 kts | 148° |
| 2026-05-06 19:16 | 36.63824 | -122.29433 | 30476 ft | 455 kts | 148° |
| 2026-05-06 19:16 | 36.61086 | -122.27436 | 30838 ft | 456 kts | 147° |
| 2026-05-06 19:17 | 36.58337 | -122.25434 | 31194 ft | 459 kts | 147° |
| 2026-05-06 19:17 | 36.55576 | -122.23425 | 31532 ft | 461 kts | 147° |
| 2026-05-06 19:17 | 36.52798 | -122.21405 | 31874 ft | 463 kts | 147° |
| 2026-05-06 19:17 | 36.50014 | -122.19382 | 32211 ft | 465 kts | 147° |
| 2026-05-06 19:18 | 36.47210 | -122.17347 | 32548 ft | 467 kts | 147° |
| 2026-05-06 19:18 | 36.44407 | -122.15313 | 32892 ft | 469 kts | 147° |
| 2026-05-06 19:18 | 36.41584 | -122.13268 | 33243 ft | 471 kts | 147° |
| 2026-05-06 19:18 | 36.38745 | -122.11212 | 33565 ft | 473 kts | 147° |
| 2026-05-06 19:19 | 36.35897 | -122.09152 | 33993 ft | 473 kts | 146° |
| 2026-05-06 19:19 | 36.33059 | -122.07101 | 34419 ft | 472 kts | 146° |
| 2026-05-06 19:19 | 36.30264 | -122.05082 | 34779 ft | 471 kts | 146° |
| 2026-05-06 19:19 | 36.27427 | -122.03035 | 35126 ft | 471 kts | 146° |
| 2026-05-06 19:20 | 36.24587 | -122.00987 | 35488 ft | 470 kts | 146° |
| 2026-05-06 19:20 | 36.21765 | -121.98955 | 35820 ft | 470 kts | 146° |
| 2026-05-06 19:20 | 36.18939 | -121.96921 | 36151 ft | 470 kts | 146° |
| 2026-05-06 19:20 | 36.16113 | -121.94888 | 36472 ft | 469 kts | 146° |
| 2026-05-06 19:21 | 36.13289 | -121.92859 | 36791 ft | 469 kts | 146° |
| 2026-05-06 19:21 | 36.10465 | -121.90832 | 37095 ft | 469 kts | 146° |
| 2026-05-06 19:21 | 36.07680 | -121.88833 | 37398 ft | 468 kts | 146° |
| 2026-05-06 19:21 | 36.04864 | -121.86814 | 37684 ft | 468 kts | 146° |
| 2026-05-06 19:22 | 36.02068 | -121.84791 | 37966 ft | 466 kts | 143° |
| 2026-05-06 19:22 | 35.99610 | -121.82265 | 38278 ft | 454 kts | 127° |
| 2026-05-06 19:22 | 35.97606 | -121.79262 | 38529 ft | 453 kts | 124° |
| 2026-05-06 19:22 | 35.95624 | -121.76232 | 38729 ft | 453 kts | 124° |
| 2026-05-06 19:23 | 35.93666 | -121.73181 | 38966 ft | 453 kts | 123° |
| 2026-05-06 19:23 | 35.91726 | -121.70124 | 39154 ft | 452 kts | 123° |
| 2026-05-06 19:23 | 35.89790 | -121.67055 | 39207 ft | 453 kts | 123° |
| 2026-05-06 19:24 | 35.85942 | -121.60945 | 39191 ft | 451 kts | 123° |
| 2026-05-06 19:24 | 35.82090 | -121.54835 | 39195 ft | 451 kts | 123° |
| 2026-05-06 19:25 | 35.78260 | -121.48771 | 39194 ft | 451 kts | 123° |
| 2026-05-06 19:25 | 35.74401 | -121.42672 | 39195 ft | 451 kts | 123° |
| 2026-05-06 19:26 | 35.70538 | -121.36579 | 39192 ft | 451 kts | 123° |
| 2026-05-06 19:26 | 35.66679 | -121.30501 | 39201 ft | 451 kts | 123° |
| 2026-05-06 19:27 | 35.62814 | -121.24425 | 39187 ft | 449 kts | 123° |
| 2026-05-06 19:27 | 35.58971 | -121.18394 | 39189 ft | 450 kts | 123° |
| 2026-05-06 19:28 | 35.55108 | -121.12342 | 39187 ft | 451 kts | 123° |
| 2026-05-06 19:28 | 35.51138 | -121.06369 | 39169 ft | 455 kts | 132° |
| 2026-05-06 19:29 | 35.46408 | -121.01239 | 39162 ft | 456 kts | 133° |
| 2026-05-06 19:29 | 35.41655 | -120.96078 | 39190 ft | 457 kts | 134° |
| 2026-05-06 19:30 | 35.36901 | -120.90935 | 39163 ft | 456 kts | 133° |
| 2026-05-06 19:30 | 35.32137 | -120.85791 | 39154 ft | 456 kts | 133° |
| 2026-05-06 19:31 | 35.27382 | -120.80666 | 39144 ft | 455 kts | 133° |
| 2026-05-06 19:31 | 35.20239 | -120.72982 | 39145 ft | 456 kts | 134° |
| 2026-05-06 19:32 | 35.15481 | -120.67872 | 39149 ft | 455 kts | 133° |
| 2026-05-06 19:32 | 35.10728 | -120.62778 | 39146 ft | 454 kts | 133° |
| 2026-05-06 19:33 | 35.05977 | -120.57694 | 39147 ft | 454 kts | 133° |
| 2026-05-06 19:33 | 35.00845 | -120.53187 | 39170 ft | 460 kts | 141° |
| 2026-05-06 19:34 | 34.95537 | -120.48865 | 39146 ft | 459 kts | 141° |
| 2026-05-06 19:34 | 34.90207 | -120.44549 | 39147 ft | 460 kts | 141° |
| 2026-05-06 19:35 | 34.84873 | -120.40238 | 39145 ft | 460 kts | 141° |
| 2026-05-06 19:35 | 34.79536 | -120.35932 | 39099 ft | 461 kts | 141° |
| 2026-05-06 19:36 | 34.76871 | -120.33784 | 38908 ft | 460 kts | 141° |
| 2026-05-06 19:36 | 34.74210 | -120.31641 | 38641 ft | 458 kts | 141° |
| 2026-05-06 19:36 | 34.71542 | -120.29494 | 38364 ft | 459 kts | 141° |
| 2026-05-06 19:36 | 34.68881 | -120.27358 | 38071 ft | 459 kts | 141° |
| 2026-05-06 19:37 | 34.66247 | -120.25248 | 37771 ft | 459 kts | 141° |
| 2026-05-06 19:37 | 34.63576 | -120.23109 | 37509 ft | 460 kts | 141° |
| 2026-05-06 19:37 | 34.60869 | -120.20942 | 37239 ft | 461 kts | 141° |
| 2026-05-06 19:37 | 34.59094 | -120.19523 | 37086 ft | 461 kts | 141° |
| 2026-05-06 19:38 | 34.55550 | -120.16690 | 36724 ft | 462 kts | 141° |
| 2026-05-06 19:38 | 34.52861 | -120.14544 | 36460 ft | 462 kts | 141° |
| 2026-05-06 19:38 | 34.50169 | -120.12396 | 36203 ft | 463 kts | 141° |
| 2026-05-06 19:38 | 34.47479 | -120.10252 | 35952 ft | 464 kts | 141° |
| 2026-05-06 19:39 | 34.44771 | -120.08095 | 35716 ft | 465 kts | 142° |
| 2026-05-06 19:39 | 34.42065 | -120.05941 | 35463 ft | 466 kts | 142° |
| 2026-05-06 19:39 | 34.39354 | -120.03785 | 35209 ft | 467 kts | 142° |
| 2026-05-06 19:39 | 34.36646 | -120.01633 | 34971 ft | 467 kts | 142° |
| 2026-05-06 19:40 | 34.33915 | -119.99464 | 34736 ft | 468 kts | 142° |
| 2026-05-06 19:40 | 34.31223 | -119.97329 | 34500 ft | 467 kts | 142° |
| 2026-05-06 19:40 | 34.28509 | -119.95177 | 34257 ft | 465 kts | 142° |
| 2026-05-06 19:40 | 34.25812 | -119.93040 | 34020 ft | 461 kts | 142° |
| 2026-05-06 19:41 | 34.23148 | -119.90932 | 33493 ft | 455 kts | 142° |
| 2026-05-06 19:41 | 34.20495 | -119.88834 | 32690 ft | 457 kts | 142° |
| 2026-05-06 19:41 | 34.17821 | -119.86720 | 31839 ft | 461 kts | 142° |
| 2026-05-06 19:41 | 34.15137 | -119.84601 | 31078 ft | 462 kts | 142° |
| 2026-05-06 19:42 | 34.12450 | -119.82480 | 30405 ft | 462 kts | 142° |
| 2026-05-06 19:42 | 34.09756 | -119.80345 | 29593 ft | 461 kts | 141° |
| 2026-05-06 19:42 | 34.07397 | -119.77791 | 28794 ft | 450 kts | 123° |
| 2026-05-06 19:42 | 34.05717 | -119.74739 | 28299 ft | 438 kts | 117° |
| 2026-05-06 19:43 | 34.04111 | -119.71650 | 27866 ft | 431 kts | 117° |
| 2026-05-06 19:43 | 34.02547 | -119.68597 | 27353 ft | 426 kts | 116° |
| 2026-05-06 19:43 | 34.01010 | -119.65563 | 26846 ft | 422 kts | 116° |
| 2026-05-06 19:43 | 33.99498 | -119.62559 | 26339 ft | 419 kts | 116° |
| 2026-05-06 19:44 | 33.97991 | -119.59563 | 25839 ft | 415 kts | 116° |
| 2026-05-06 19:44 | 33.96500 | -119.56595 | 25359 ft | 412 kts | 116° |
| 2026-05-06 19:44 | 33.95021 | -119.53656 | 24885 ft | 409 kts | 116° |
| 2026-05-06 19:44 | 33.93551 | -119.50735 | 24412 ft | 406 kts | 116° |
| 2026-05-06 19:45 | 33.92088 | -119.47833 | 23927 ft | 404 kts | 116° |
| 2026-05-06 19:45 | 33.90633 | -119.44946 | 23406 ft | 402 kts | 116° |
| 2026-05-06 19:45 | 33.89211 | -119.42061 | 22829 ft | 400 kts | 115° |
| 2026-05-06 19:45 | 33.87808 | -119.39181 | 22347 ft | 397 kts | 116° |
| 2026-05-06 19:46 | 33.86424 | -119.36350 | 21928 ft | 392 kts | 116° |
| 2026-05-06 19:46 | 33.85048 | -119.33539 | 21514 ft | 388 kts | 116° |
| 2026-05-06 19:46 | 33.83701 | -119.30791 | 21093 ft | 384 kts | 116° |
| 2026-05-06 19:46 | 33.82352 | -119.28039 | 20680 ft | 381 kts | 116° |
| 2026-05-06 19:47 | 33.81012 | -119.25308 | 20263 ft | 377 kts | 116° |
| 2026-05-06 19:47 | 33.79682 | -119.22601 | 19850 ft | 375 kts | 116° |
| 2026-05-06 19:47 | 33.78358 | -119.19908 | 19457 ft | 372 kts | 116° |
| 2026-05-06 19:47 | 33.77044 | -119.17237 | 19057 ft | 369 kts | 116° |
| 2026-05-06 19:48 | 33.75742 | -119.14591 | 18659 ft | 367 kts | 116° |
| 2026-05-06 19:48 | 33.74445 | -119.11959 | 18253 ft | 364 kts | 116° |
| 2026-05-06 19:48 | 33.73163 | -119.09358 | 17827 ft | 361 kts | 116° |
| 2026-05-06 19:48 | 33.71887 | -119.06772 | 17436 ft | 358 kts | 116° |
| 2026-05-06 19:49 | 33.70635 | -119.04250 | 17014 ft | 355 kts | 116° |
| 2026-05-06 19:49 | 33.69362 | -119.01715 | 16571 ft | 354 kts | 116° |
| 2026-05-06 19:49 | 33.68094 | -118.99189 | 16173 ft | 352 kts | 116° |
| 2026-05-06 19:49 | 33.66835 | -118.96681 | 15791 ft | 349 kts | 116° |
| 2026-05-06 19:50 | 33.65587 | -118.94196 | 15425 ft | 346 kts | 116° |
| 2026-05-06 19:50 | 33.64349 | -118.91734 | 15053 ft | 343 kts | 117° |
| 2026-05-06 19:50 | 33.63120 | -118.89290 | 14688 ft | 341 kts | 117° |
| 2026-05-06 19:50 | 33.61897 | -118.86859 | 14323 ft | 339 kts | 117° |
| 2026-05-06 19:51 | 33.60686 | -118.84455 | 13962 ft | 336 kts | 117° |
| 2026-05-06 19:51 | 33.59480 | -118.82061 | 13557 ft | 334 kts | 117° |
| 2026-05-06 19:51 | 33.58281 | -118.79684 | 13177 ft | 332 kts | 117° |
| 2026-05-06 19:51 | 33.57238 | -118.77253 | 12778 ft | 325 kts | 103° |
| 2026-05-06 19:52 | 33.56907 | -118.75514 | 12525 ft | 320 kts | 97° |
| 2026-05-06 19:52 | 33.56467 | -118.72915 | 12209 ft | 316 kts | 98° |
| 2026-05-06 19:52 | 33.56037 | -118.70346 | 11878 ft | 313 kts | 97° |
| 2026-05-06 19:52 | 33.55618 | -118.67804 | 11544 ft | 307 kts | 97° |
| 2026-05-06 19:53 | 33.55213 | -118.65323 | 11213 ft | 300 kts | 97° |
| 2026-05-06 19:53 | 33.54820 | -118.62901 | 10891 ft | 292 kts | 97° |
| 2026-05-06 19:53 | 33.54438 | -118.60541 | 10577 ft | 286 kts | 97° |
| 2026-05-06 19:53 | 33.54062 | -118.58223 | 10267 ft | 279 kts | 97° |
| 2026-05-06 19:54 | 33.53694 | -118.55954 | 9968 ft | 277 kts | 97° |
| 2026-05-06 19:54 | 33.53326 | -118.53691 | 9638 ft | 276 kts | 98° |
| 2026-05-06 19:54 | 33.52964 | -118.51466 | 9326 ft | 274 kts | 98° |
| 2026-05-06 19:54 | 33.52601 | -118.49231 | 9024 ft | 272 kts | 98° |
| 2026-05-06 19:55 | 33.52241 | -118.47011 | 8727 ft | 270 kts | 97° |
| 2026-05-06 19:55 | 33.52108 | -118.44788 | 8413 ft | 266 kts | 88° |
| 2026-05-06 19:55 | 33.52076 | -118.42579 | 8127 ft | 265 kts | 88° |
| 2026-05-06 19:55 | 33.52025 | -118.40351 | 7855 ft | 268 kts | 89° |
| 2026-05-06 19:56 | 33.51963 | -118.38108 | 7569 ft | 270 kts | 89° |
| 2026-05-06 19:56 | 33.51893 | -118.35859 | 7279 ft | 271 kts | 89° |
| 2026-05-06 19:56 | 33.51865 | -118.33608 | 6976 ft | 267 kts | 81° |
| 2026-05-06 19:56 | 33.52395 | -118.31509 | 6687 ft | 262 kts | 66° |
| 2026-05-06 19:57 | 33.53037 | -118.29476 | 6433 ft | 258 kts | 67° |
| 2026-05-06 19:57 | 33.53655 | -118.27516 | 6185 ft | 251 kts | 66° |
| 2026-05-06 19:57 | 33.54273 | -118.25569 | 5935 ft | 244 kts | 66° |
| 2026-05-06 19:57 | 33.54862 | -118.23719 | 5699 ft | 237 kts | 66° |
| 2026-05-06 19:58 | 33.55445 | -118.21891 | 5474 ft | 232 kts | 66° |
| 2026-05-06 19:58 | 33.56016 | -118.20101 | 5256 ft | 228 kts | 66° |
| 2026-05-06 19:58 | 33.56579 | -118.18339 | 5055 ft | 223 kts | 65° |
| 2026-05-06 19:58 | 33.57311 | -118.16751 | 5037 ft | 216 kts | 53° |
| 2026-05-06 19:59 | 33.58159 | -118.15252 | 5026 ft | 217 kts | 53° |
| 2026-05-06 19:59 | 33.59001 | -118.13752 | 5014 ft | 217 kts | 53° |
| 2026-05-06 19:59 | 33.59841 | -118.12252 | 5006 ft | 217 kts | 53° |
| 2026-05-06 19:59 | 33.60682 | -118.10746 | 4996 ft | 217 kts | 54° |
| 2026-05-06 20:00 | 33.61514 | -118.09255 | 4992 ft | 218 kts | 54° |
| 2026-05-06 20:00 | 33.62358 | -118.07739 | 4999 ft | 218 kts | 54° |
| 2026-05-06 20:00 | 33.63201 | -118.06227 | 5005 ft | 217 kts | 54° |
| 2026-05-06 20:00 | 33.64035 | -118.04729 | 4997 ft | 215 kts | 55° |
| 2026-05-06 20:01 | 33.64863 | -118.03240 | 4994 ft | 214 kts | 54° |
| 2026-05-06 20:01 | 33.65687 | -118.01756 | 4982 ft | 214 kts | 54° |
| 2026-05-06 20:01 | 33.66512 | -118.00272 | 4996 ft | 215 kts | 54° |
| 2026-05-06 20:01 | 33.67341 | -117.98781 | 5001 ft | 214 kts | 54° |
| 2026-05-06 20:02 | 33.68166 | -117.97293 | 4971 ft | 214 kts | 55° |
| 2026-05-06 20:02 | 33.68992 | -117.95804 | 4965 ft | 214 kts | 54° |
| 2026-05-06 20:02 | 33.69987 | -117.94497 | 4874 ft | 211 kts | 31° |
| 2026-05-06 20:02 | 33.71278 | -117.93648 | 4682 ft | 212 kts | 28° |
| 2026-05-06 20:03 | 33.72576 | -117.92801 | 4467 ft | 213 kts | 28° |
| 2026-05-06 20:03 | 33.73870 | -117.91974 | 4215 ft | 213 kts | 28° |
| 2026-05-06 20:03 | 33.75163 | -117.91155 | 3954 ft | 208 kts | 28° |
| 2026-05-06 20:03 | 33.76431 | -117.90356 | 3703 ft | 203 kts | 28° |
| 2026-05-06 20:04 | 33.77654 | -117.89536 | 3412 ft | 200 kts | 35° |
| 2026-05-06 20:04 | 33.78648 | -117.88387 | 3092 ft | 198 kts | 56° |
| 2026-05-06 20:04 | 33.79171 | -117.86867 | 2763 ft | 197 kts | 81° |
| 2026-05-06 20:04 | 33.79148 | -117.85239 | 2461 ft | 195 kts | 104° |
| 2026-05-06 20:05 | 33.78632 | -117.83812 | 2167 ft | 176 kts | 128° |
| 2026-05-06 20:05 | 33.77830 | -117.82826 | 1965 ft | 155 kts | 148° |
| 2026-05-06 20:05 | 33.76900 | -117.82253 | 1789 ft | 146 kts | 166° |
| 2026-05-06 20:05 | 33.75916 | -117.82067 | 1609 ft | 145 kts | 184° |
| 2026-05-06 20:06 | 33.74925 | -117.82264 | 1431 ft | 144 kts | 201° |
| 2026-05-06 20:06 | 33.74016 | -117.82752 | 1269 ft | 143 kts | 209° |
| 2026-05-06 20:06 | 33.73152 | -117.83336 | 1110 ft | 142 kts | 210° |
| 2026-05-06 20:06 | 33.72296 | -117.83911 | 939 ft | 143 kts | 207° |
| 2026-05-06 20:07 | 33.71420 | -117.84453 | 771 ft | 140 kts | 207° |
| 2026-05-06 20:07 | 33.70577 | -117.84977 | 578 ft | 133 kts | 207° |
| 2026-05-06 20:07 | 33.69774 | -117.85493 | 405 ft | 130 kts | 207° |
| 2026-05-06 20:07 | 33.68968 | -117.85998 | 251 ft | 130 kts | 207° |
| 2026-05-06 20:08 | 33.68145 | -117.86521 | 81 ft | 135 kts | 207° |
| 2026-05-06 20:08 | 33.67464 | -117.86952 | 62 ft | 78 kts | 207° |
| 2026-05-06 20:08 | 33.67089 | -117.87190 | 57 ft | 28 kts | 208° |
| 2026-05-06 20:08 | 33.66979 | -117.87219 | 64 ft | 12 kts | 166° |
| 2026-05-06 20:09 | 33.66913 | -117.87155 | 66 ft | 13 kts | 126° |
| 2026-05-06 20:09 | 33.66951 | -117.87054 | 60 ft | 17 kts | 40° |
| 2026-05-06 20:09 | 33.67052 | -117.86951 | 57 ft | 19 kts | 41° |
| 2026-05-06 20:09 | 33.67147 | -117.86857 | 60 ft | 17 kts | 33° |
| 2026-05-06 20:10 | 33.67246 | -117.86792 | 64 ft | 14 kts | 28° |
| 2026-05-06 20:10 | 33.67318 | -117.86715 | 63 ft | 14 kts | 45° |
| 2026-05-06 20:10 | 33.67409 | -117.86651 | 59 ft | 17 kts | 28° |
| 2026-05-06 20:10 | 33.67527 | -117.86577 | 64 ft | 21 kts | 27° |
| 2026-05-06 20:11 | 33.67667 | -117.86488 | 57 ft | 22 kts | 27° |
| 2026-05-06 20:11 | 33.67788 | -117.86410 | 52 ft | 19 kts | 28° |
| 2026-05-06 20:11 | 33.67894 | -117.86343 | 55 ft | 11 kts | 28° |
| 2026-05-06 20:11 | 33.67964 | -117.86299 | 51 ft | 11 kts | 28° |
| 2026-05-06 20:12 | 33.67989 | -117.86262 | 54 ft | 4 kts | 94° |
| 2026-05-06 20:12 | 33.67977 | -117.86229 | 50 ft | 4 kts | 118° |
| 2026-05-06 20:12 | 33.67972 | -117.86220 | 51 ft | 2 kts | 119° |
| 2026-05-06 20:12 | 33.67972 | -117.86219 | 51 ft | 0 kts | 119° |